KNOW

Details ICAO KNOW (NOW)
Name PORT ANGELES CGAS
Region United States
Timezone Unknown (UTC+0.0)
Plans Departing 5
Arriving 12
Stats Elevation 13 ft / 4 m (AMSL)
Location 48.141293° -123.413955°
Runways 1
Magnetic Variation 16.045° E
Sunrise 2017-12-11 15:55:45 UTC / 2017-12-11 15:55:45 Local
Sunset 2017-12-12 00:21:18 UTC / 2017-12-12 00:21:18 Local
Advertisement - Login to hide

Runways

ID Width Length Bearing (true) Bearing (mag) Surface Threshold Offset Overrun Length
07 151 ft / 46 m 4,488 ft / 1,368 m 93.55° 77.50° Asphalt 0 ft / 0 m 0 ft / 0 m
25 151 ft / 46 m 4,488 ft / 1,368 m 273.57° 257.52° Asphalt 0 ft / 0 m 0 ft / 0 m

Map

Weather


0- 5 10 15 20 25 30 35+ Temperature / ° C

Clouds and Precipitation
Forecast for 2017-12-11 18:00 UTC. Updated 23 minutes ago

Ground ~20,000 ft ~40,000 ft Winds

METAR

KNOW 111315Z AUTO 19004KT 10SM CLR 04/02 A3032 RMK AO2 T00400019

TAF

Not found

Frequencies

Unicom 122.98 MHz CTAF
Approach 118.20 MHz WHIDBEY APP
Warning: Do not use this data for real-world aviation or navigation. No guarantee of current accuracy is given.